• Join FlightAware (Why Join?)
  • Login
  • US Flag 
09:18PM EDT


 

Airport Tracker/Info


-or-


 

Live Flight TrackerFlight Track Log ✈ SWA286 ✈ 28-Apr-2013 ✈ KBNA - KDEN

Flight Track Log - Related Links

Times and Time Zones

All times are in EDT time to prevent confusion due to time zone crossing. See the SWA286 flight status page for this flight to view local times or setup timezone preferences in your user account.

Time Position Orientation Groundspeed Altitude Reporting Facility
EDT Latitude Longitude Course Direction KTS MPH feet Rate Location/Type
04:39PM 36.1000 -86.6833 277° West 160 184 1,500  Level Nashville TRACON
04:41PM 36.1000 -86.7667 270° West 219 252 3,900 2,580 Climbing Nashville TRACON
04:42PM 36.1333 -86.8500 296° West 286 329 7,500 3,120 Climbing Nashville TRACON
04:43PM 36.1617 -86.9508 289° West 286 329 11,200 3,180 Climbing Memphis Center
04:44PM 36.2042 -87.0569 296° West 309 356 14,500 3,120 Climbing Memphis Center
04:45PM 36.2943 -87.4425 277° West  Level FlightAware Approximate
04:45PM 36.2444 -87.1608 296° West 322 371 17,500  Level Memphis Center
04:46PM 36.2786 -87.2753 290° West 342 394 20,100 2,520 Climbing Memphis Center
04:47PM 36.2983 -87.3983 281° West 358 412 22,600 2,340 Climbing Memphis Center
04:48PM 36.3242 -87.5261 284° West 374 430 24,800 2,100 Climbing Memphis Center
04:49PM 36.3792 -87.6453 300° West 380 437 26,900 1,860 Climbing Memphis Center
04:50PM 36.4339 -87.7672 299° West 405 466 28,600 1,680 Climbing Memphis Center
04:51PM 36.4861 -87.8792 300° West 411 473 30,300 1,800 Climbing Memphis Center
04:52PM 36.5406 -88.0067 298° West 411 473 32,200 1,980 Climbing Memphis Center
04:53PM 36.6036 -88.1392 301° West 411 473 34,300 1,740 Climbing Memphis Center
04:54PM 36.6494 -88.2619 295° West 405 466 35,700 1,200 Climbing Memphis Center
04:55PM 36.6725 -88.3986 282° West 399 459 36,700 1,020 Climbing Memphis Center
04:56PM 36.6956 -88.5353 282° West 399 459 37,800 600 Climbing Memphis Center
04:57PM 36.7183 -88.6719 282° West 409 471 38,000 60 Climbing Memphis Center
04:58PM 36.7389 -88.8139 280° West 414 476 38,000  Level Memphis Center
04:59PM 36.7614 -88.9533 281° West 414 476 38,000  Level Memphis Center
05:00PM 36.7836 -89.0928 281° West 414 476 38,000  Level Memphis Center
05:01PM 36.8039 -89.2350 280° West 414 476 38,000  Level Memphis Center
05:02PM 36.8281 -89.3797 282° West 414 476 38,000  Level Memphis Center
05:03PM 36.8581 -89.5167 285° West 414 476 38,000  Level Memphis Center
05:04PM 36.8944 -89.6564 288° West 414 476 38,000  Level Memphis Center
05:05PM 36.9264 -89.7939 286° West 419 482 38,000  Level Memphis Center
05:06PM 36.9581 -89.9181 288° West 419 482 38,000  Level Memphis Center
05:07PM 36.9919 -90.0583 287° West 419 482 38,000  Level Memphis Center
05:08PM 37.0256 -90.1958 287° West 419 482 38,000  Level Memphis Center
05:09PM 37.0589 -90.3361 287° West 419 482 38,000  Level Memphis Center
05:11PM 37.1281 -90.6167 287° West 423 487 38,000  Level Kansas City Center
05:12PM 37.1692 -90.7850 287° West 421 484 38,000  Level Kansas City Center
05:13PM 37.2019 -90.9294 286° West 419 482 38,000  Level Kansas City Center
05:14PM 37.2356 -91.0711 287° West 421 484 38,000  Level Kansas City Center
05:15PM 37.2678 -91.2111 286° West 419 482 38,000  Level Kansas City Center
05:16PM 37.3000 -91.3519 286° West 418 481 38,000  Level Kansas City Center
05:17PM 37.3342 -91.4908 287° West 418 481 38,000  Level Kansas City Center
05:18PM 37.3669 -91.6319 286° West 418 481 38,000  Level Kansas City Center
05:19PM 37.3981 -91.7708 286° West 415 478 38,000  Level Kansas City Center
05:20PM 37.4300 -91.9103 286° West 412 474 38,000  Level Kansas City Center
05:21PM 37.4681 -92.0781 286° West 413 475 38,000  Level Kansas City Center
05:22PM 37.5003 -92.2186 286° West 414 476 38,000  Level Kansas City Center
05:23PM 37.5311 -92.3608 285° West 417 480 38,000  Level Kansas City Center
05:24PM 37.5633 -92.5028 286° West 417 480 38,000  Level Kansas City Center
05:25PM 37.5947 -92.6442 286° West 416 479 38,000  Level Kansas City Center
05:26PM 37.6258 -92.7844 286° West 413 475 38,000  Level Kansas City Center
05:27PM 37.6575 -92.9250 286° West 414 476 38,000  Level Kansas City Center
05:29PM 37.6881 -93.0686 285° West 418 481 38,000  Level Kansas City Center
05:30PM 37.7206 -93.2097 286° West 417 480 38,000  Level Kansas City Center
05:31PM 37.7567 -93.3839 285° West 423 487 38,000  Level Kansas City Center
05:32PM 37.7869 -93.5283 285° West 425 489 38,000  Level Kansas City Center
05:33PM 37.8189 -93.6744 286° West 428 493 38,000  Level Kansas City Center
05:34PM 37.8494 -93.8208 285° West 430 495 38,000  Level Kansas City Center
05:35PM 37.8794 -93.9669 285° West 429 494 38,000  Level Kansas City Center
05:36PM 37.9094 -94.1122 285° West 427 491 38,000  Level Kansas City Center
05:37PM 37.9428 -94.2728 285° West 424 488 38,000  Level Kansas City Center
05:38PM 37.9694 -94.4094 284° West 420 483 38,000  Level Kansas City Center
05:39PM 38.0025 -94.5669 285° West 415 478 38,000  Level Kansas City Center
05:40PM 38.0306 -94.7011 285° West 412 474 38,000  Level Kansas City Center
05:41PM 38.0600 -94.8597 283° West 413 475 38,000  Level Kansas City Center
05:42PM 38.0878 -94.9942 285° West 412 474 38,000  Level Kansas City Center
05:43PM 38.1192 -95.1547 284° West 417 480 38,000  Level Kansas City Center
05:44PM 38.1450 -95.2947 283° West 424 488 38,000  Level Kansas City Center
05:45PM 38.1778 -95.4533 285° West 416 479 38,000  Level Kansas City Center
05:46PM 38.2044 -95.5911 284° West 418 481 38,000  Level Kansas City Center
05:47PM 38.2306 -95.7289 284° West 419 482 38,000  Level Kansas City Center
05:48PM 38.2617 -95.8897 284° West 418 481 38,000  Level Kansas City Center
05:49PM 38.2864 -96.0264 283° West 415 478 38,000  Level Kansas City Center
05:50PM 38.3169 -96.1861 284° West 414 476 38,000  Level Kansas City Center
05:51PM 38.3422 -96.3233 283° West 416 479 38,000  Level Kansas City Center
05:52PM 38.3700 -96.4744 283° West 417 480 38,000  Level Kansas City Center
05:53PM 38.3964 -96.6186 283° West 418 481 38,000  Level Kansas City Center
05:54PM 38.4228 -96.7633 283° West 420 483 38,000  Level Kansas City Center
05:55PM 38.4486 -96.9089 283° West 421 484 38,000  Level Kansas City Center
05:56PM 38.4806 -97.0844 283° West 425 489 38,000  Level Kansas City Center
05:57PM 38.5064 -97.2311 283° West 426 490 38,000  Level Kansas City Center
05:59PM 38.5325 -97.3761 283° West 422 486 38,000  Level Kansas City Center
06:00PM 38.5575 -97.5217 282° West 422 486 38,000  Level Kansas City Center
06:01PM 38.5831 -97.6669 283° West 422 486 38,000  Level Kansas City Center
06:02PM 38.6125 -97.8403 282° West 419 482 38,000  Level Kansas City Center
06:03PM 38.6375 -97.9847 283° West 418 481 38,000  Level Kansas City Center
06:04PM 38.6611 -98.1286 282° West 416 479 38,000  Level Kansas City Center
06:05PM 38.6861 -98.2706 283° West 412 474 38,000  Level Kansas City Center
06:06PM 38.7086 -98.4136 281° West 411 473 38,000  Level Kansas City Center
06:07PM 38.7331 -98.5561 282° West 412 474 38,000  Level Kansas City Center
06:08PM 38.7614 -98.7283 282° West 413 475 38,000  Level Kansas City Center
06:09PM 38.7844 -98.8722 282° West 413 475 38,000  Level Kansas City Center
06:10PM 38.8086 -99.0158 282° West 415 478 38,000  Level Kansas City Center
06:11PM 38.8322 -99.1589 282° West 412 474 38,000  Level Kansas City Center
06:12PM 38.8497 -99.3036 279° West 413 475 38,000  Level Kansas City Center
06:13PM 38.8492 -99.4283 270° West 414 476 38,000  Level Denver Center
06:14PM 38.8508 -99.5947 271° West 417 480 38,000  Level Denver Center
06:15PM 38.8519 -99.7347 271° West 414 476 38,000  Level Denver Center
06:16PM 38.8533 -99.8986 271° West 412 474 38,000  Level Denver Center
06:17PM 38.8553 -100.0406 271° West 416 479 38,000  Level Denver Center
06:18PM 38.8553 -100.1811 270° West 415 478 38,000  Level Denver Center
06:19PM 38.8550 -100.3442 270° West 412 474 38,000  Level Denver Center
06:20PM 38.8553 -100.4850 270° West 412 474 38,000  Level Denver Center
06:21PM 38.8556 -100.6492 270° West 415 478 38,000  Level Denver Center
06:22PM 38.8550 -100.7894 270° West 414 476 38,000  Level Denver Center
06:23PM 38.8550 -100.9547 270° West 416 479 38,000 -420 Level Denver Center
06:24PM 38.8544 -101.0944 270° West 412 474 37,200 -900 Descending Denver Center
06:25PM 38.8536 -101.2606 270° West 417 480 36,200 -960 Descending Denver Center
06:26PM 38.8519 -101.4031 269° West 420 483 35,300 -1,020 Descending Denver Center
06:27PM 38.8517 -101.5725 270° West 427 491 34,200 -660 Descending Denver Center
06:28PM 38.8500 -101.7153 269° West 421 484 34,000 -120 Descending Denver Center
06:29PM 38.8486 -101.8811 269° West 420 483 34,000  Level Denver Center
06:30PM 38.8469 -102.0208 269° West 415 478 34,000 -120 Level Denver Center
06:31PM 38.8431 -102.1894 268° West 423 487 33,800 -600 Descending Denver Center
06:32PM 38.8414 -102.3275 269° West 410 472 32,800 -900 Descending Denver Center
06:33PM 38.8386 -102.4581 268° West 387 445 32,000 -420 Descending Denver Center
06:34PM 38.8367 -102.6092 269° West 380 437 32,000  Level Denver Center
06:35PM 38.8361 -102.7389 270° West 380 437 32,000  Level Denver Center
06:36PM 38.8875 -102.8600 299° West 380 437 32,000  Level Denver Center
06:37PM 38.9556 -103.0022 302° West 396 456 32,000 -300 Level Denver Center
06:38PM 39.0153 -103.1253 302° West 403 464 31,500 -1,620 Descending Denver Center
06:40PM 39.0739 -103.2503 301° West 404 465 28,800 -2,460 Descending Denver Center
06:41PM 39.1344 -103.3750 302° West 408 470 26,500 -2,220 Descending Denver Center
06:42PM 39.1908 -103.4956 301° West 393 452 24,300 -2,100 Descending Denver Center
06:43PM 39.2444 -103.6103 301° West 373 429 22,200 -2,040 Descending Denver Center
06:44PM 39.2964 -103.7208 301° West 362 417 20,100 -2,040 Descending Denver Center
06:45PM 39.3456 -103.8275 301° West 348 400 18,100 -1,560 Descending Denver Center
06:46PM 39.3956 -103.9433 299° West 333 383 17,000 -1,200 Descending Denver Center
06:47PM 39.4211 -104.0422 289° West 302 348 15,700 -2,040 Descending Denver Center
06:48PM 39.4700 -104.1617 298° West 350 403 12,900 -2,280 Descending Denver Center
06:49PM 39.5011 -104.2822 289° West 353 406 11,100 -1,320 Descending Denver Center
06:50PM 39.5264 -104.3953 286° West 333 383 10,300 -1,080 Descending Denver Center
06:51PM 39.5864 -104.4733 315° West 287 330 8,900 -1,140 Descending Denver Center
06:52PM 39.6456 -104.5344 322° Northwest 276 318 8,000 -900 Descending Denver Center
06:53PM 39.6972 -104.5878 322° Northwest 245 282 7,100 -540 Descending Denver Center
06:54PM 39.7456 -104.6386 321° Northwest 213 245 7,000 -420 Descending Denver Center
06:55PM 39.7889 -104.6422 356° North 164 189 6,300 -780 Descending Denver Center
06:56PM 39.8303 -104.6419 360° North 149 171 5,500 -780 Descending Denver Center
06:58PM 39.8500 -104.6667 North  Level FlightAware Approximate
07:05PM 39.8617 -104.6732 North  Level Estimated
07:06PM 39.8617 -104.6732 North  Level Estimated
07:07PM 39.8617 -104.6732 North  Level Estimated